createdAt,value
2022-11-03T00:00:37.907Z,4.80
2022-11-03T00:03:34.650Z,5.20
2022-11-03T00:06:31.766Z,4.80
2022-11-03T00:09:28.901Z,5.40
2022-11-03T00:12:25.683Z,2.80
2022-11-03T00:15:22.542Z,2.80
2022-11-03T00:18:19.962Z,4.20
2022-11-03T00:21:16.647Z,3.00
2022-11-03T00:24:13.638Z,2.20
2022-11-03T00:27:10.731Z,3.00
2022-11-03T00:30:08.170Z,3.00
2022-11-03T00:33:05.675Z,2.60
2022-11-03T00:36:03.317Z,5.80
2022-11-03T00:39:00.985Z,2.80
2022-11-03T00:41:57.918Z,5.00
2022-11-03T00:44:54.911Z,2.80
2022-11-03T00:48:14.682Z,6.00
2022-11-03T00:51:12.549Z,1.20
2022-11-03T00:54:09.723Z,4.20
2022-11-03T00:57:07.271Z,5.00
2022-11-03T01:00:04.944Z,5.60
2022-11-03T01:03:01.882Z,5.60
2022-11-03T01:06:17.337Z,6.40
2022-11-03T01:09:14.912Z,4.20
2022-11-03T01:12:18.691Z,2.60
2022-11-03T01:15:15.587Z,4.20
2022-11-03T01:18:12.700Z,2.20
2022-11-03T01:21:09.623Z,2.80
2022-11-03T01:24:07.023Z,2.00
2022-11-03T01:27:03.898Z,4.60
2022-11-03T01:30:00.872Z,5.60
2022-11-03T01:32:57.696Z,2.60
2022-11-03T01:35:54.912Z,2.80
2022-11-03T01:38:51.814Z,5.40
2022-11-03T01:41:50.179Z,1.80
2022-11-03T01:44:49.209Z,3.80
2022-11-03T01:47:45.916Z,2.60
2022-11-03T01:50:42.958Z,5.40
2022-11-03T01:53:41.478Z,6.80
2022-11-03T01:56:39.770Z,8.00
2022-11-03T01:59:36.749Z,4.20
2022-11-03T02:02:33.728Z,3.00
2022-11-03T02:05:30.784Z,2.80
2022-11-03T02:08:49.689Z,6.20
2022-11-03T02:12:05.392Z,5.00
2022-11-03T02:15:10.839Z,2.00
2022-11-03T02:18:08.013Z,7.00
2022-11-03T02:21:14.705Z,5.00
2022-11-03T02:24:23.260Z,5.40
2022-11-03T02:27:19.872Z,5.00
2022-11-03T02:30:17.409Z,5.00
2022-11-03T02:33:31.917Z,2.40
2022-11-03T02:36:49.988Z,1.60
2022-11-03T02:39:54.779Z,3.80
2022-11-03T02:42:52.298Z,3.20
2022-11-03T02:45:48.758Z,2.60
2022-11-03T02:48:45.575Z,5.20
2022-11-03T02:51:43.068Z,5.00
2022-11-03T02:54:41.859Z,4.00
2022-11-03T02:57:52.158Z,3.00
2022-11-03T03:00:54.928Z,1.60
2022-11-03T03:03:58.797Z,2.60
2022-11-03T03:07:07.478Z,4.80
2022-11-03T03:10:08.223Z,6.20
2022-11-03T03:13:05.452Z,2.00
2022-11-03T03:16:20.249Z,4.20
2022-11-03T03:19:18.825Z,5.00
2022-11-03T03:22:42.203Z,5.00
2022-11-03T03:25:43.775Z,2.20
2022-11-03T03:28:43.996Z,4.60
2022-11-03T03:31:42.985Z,1.00
2022-11-03T03:34:40.092Z,3.00
2022-11-03T03:37:37.969Z,7.20
2022-11-03T03:40:36.557Z,6.60
2022-11-03T03:43:34.069Z,4.20
2022-11-03T03:46:34.234Z,5.40
2022-11-03T03:49:30.899Z,5.40
2022-11-03T03:52:28.050Z,6.00
2022-11-03T03:55:25.913Z,2.40
2022-11-03T03:58:22.839Z,5.00
2022-11-03T04:01:19.831Z,3.00
2022-11-03T04:04:17.140Z,5.20
2022-11-03T04:07:32.589Z,4.80
2022-11-03T04:10:29.819Z,4.20
2022-11-03T04:13:45.075Z,5.60
2022-11-03T04:17:00.129Z,5.80
2022-11-03T04:20:16.642Z,6.80
2022-11-03T04:23:13.770Z,2.20
2022-11-03T04:26:18.705Z,5.00
2022-11-03T04:29:15.708Z,2.80
2022-11-03T04:32:17.222Z,5.80
2022-11-03T04:35:22.048Z,4.60
2022-11-03T04:38:22.257Z,2.00
2022-11-03T04:41:24.308Z,3.80
2022-11-03T04:44:22.392Z,5.00
2022-11-03T04:47:20.120Z,4.20
2022-11-03T04:50:21.062Z,2.00
2022-11-03T04:53:18.853Z,4.60
2022-11-03T04:56:17.886Z,5.40
2022-11-03T04:59:15.477Z,5.20
2022-11-03T05:02:18.148Z,3.40
2022-11-03T05:05:21.931Z,3.40
2022-11-03T05:08:19.302Z,4.20
2022-11-03T05:11:32.971Z,5.00
2022-11-03T05:14:30.398Z,3.80
2022-11-03T05:17:28.084Z,3.40
2022-11-03T05:20:45.145Z,5.00
2022-11-03T05:23:47.855Z,3.40
2022-11-03T05:26:45.403Z,0.00
2022-11-03T05:29:42.126Z,6.00
2022-11-03T05:32:39.371Z,4.80
2022-11-03T05:35:35.773Z,6.60
2022-11-03T05:38:33.582Z,1.60
2022-11-03T05:41:31.175Z,6.60
2022-11-03T05:44:37.450Z,4.00
2022-11-03T05:47:38.375Z,2.00
2022-11-03T05:50:35.782Z,3.80
2022-11-03T05:53:38.592Z,3.00
2022-11-03T05:56:36.218Z,2.80
2022-11-03T05:59:33.104Z,2.80
2022-11-03T06:02:39.770Z,2.40
2022-11-03T06:05:36.969Z,4.20
2022-11-03T06:08:35.529Z,3.00
2022-11-03T06:11:34.134Z,4.20
2022-11-03T06:14:30.912Z,6.20
2022-11-03T06:17:27.956Z,3.40
2022-11-03T06:20:25.306Z,0.80
2022-11-03T06:23:22.167Z,2.80
2022-11-03T06:26:20.633Z,5.20
2022-11-03T06:29:19.181Z,2.40
2022-11-03T06:32:15.975Z,2.80
2022-11-03T06:35:13.087Z,2.60
2022-11-03T06:38:18.678Z,5.20
2022-11-03T06:41:23.408Z,5.60
2022-11-03T06:44:27.171Z,2.60
2022-11-03T06:47:28.416Z,8.60
2022-11-03T06:50:30.028Z,4.20
2022-11-03T06:53:32.297Z,5.00
2022-11-03T06:56:29.586Z,3.40
2022-11-03T06:59:26.947Z,4.80
2022-11-03T07:02:42.289Z,7.00
2022-11-03T07:05:39.232Z,1.80
2022-11-03T07:08:43.297Z,2.60
2022-11-03T07:11:44.243Z,4.40
2022-11-03T07:14:40.881Z,4.80
2022-11-03T07:17:37.624Z,6.40
2022-11-03T07:20:34.886Z,5.40
2022-11-03T07:23:31.731Z,5.40
2022-11-03T07:26:29.170Z,5.60
2022-11-03T07:29:27.178Z,4.20
2022-11-03T07:32:29.916Z,4.60
2022-11-03T07:36:08.378Z,2.00
2022-11-03T07:38:56.256Z,5.20
2022-11-03T07:41:53.242Z,6.00
2022-11-03T07:44:50.251Z,2.40
2022-11-03T07:47:47.250Z,4.80
2022-11-03T07:50:44.315Z,5.60
2022-11-03T07:53:44.056Z,3.80
2022-11-03T07:56:43.364Z,6.80
2022-11-03T08:00:03.981Z,2.80
2022-11-03T08:03:35.620Z,2.80
2022-11-03T08:06:33.238Z,3.80
2022-11-03T08:09:29.860Z,4.60
2022-11-03T08:12:27.346Z,3.00
2022-11-03T08:15:24.256Z,3.40
2022-11-03T08:18:21.057Z,2.60
2022-11-03T08:21:17.980Z,4.60
2022-11-03T08:24:14.882Z,0.60
2022-11-03T08:27:12.093Z,4.00
2022-11-03T08:30:10.153Z,3.00
2022-11-03T08:33:07.354Z,2.00
2022-11-03T08:36:05.206Z,3.80
2022-11-03T08:39:05.601Z,4.20
2022-11-03T08:42:03.664Z,5.40
2022-11-03T08:45:01.465Z,0.00
2022-11-03T08:47:59.081Z,2.00
2022-11-03T08:50:56.066Z,2.80
2022-11-03T08:53:55.842Z,2.40
2022-11-03T08:56:52.852Z,8.40
2022-11-03T08:59:52.523Z,3.60
2022-11-03T09:02:48.951Z,1.60
2022-11-03T09:05:46.389Z,5.40
2022-11-03T09:12:00.451Z,3.00
2022-11-03T09:14:57.413Z,7.40
2022-11-03T09:17:54.128Z,2.00
2022-11-03T09:20:50.910Z,3.40
2022-11-03T09:23:48.436Z,7.20
2022-11-03T09:26:45.356Z,3.60
2022-11-03T09:30:11.021Z,6.20
2022-11-03T09:32:59.569Z,4.00
2022-11-03T09:35:56.209Z,4.00
2022-11-03T09:38:53.167Z,5.00
2022-11-03T09:41:58.599Z,3.00
2022-11-03T09:44:56.391Z,4.00
2022-11-03T09:47:53.297Z,7.40
2022-11-03T09:50:52.333Z,6.20
2022-11-03T09:53:49.839Z,2.00
2022-11-03T09:56:47.838Z,2.40
2022-11-03T09:59:48.401Z,3.40
2022-11-03T10:02:45.068Z,2.80
2022-11-03T10:05:42.647Z,2.00
2022-11-03T10:08:41.962Z,3.00
2022-11-03T10:11:39.511Z,6.00
2022-11-03T10:14:36.544Z,2.40
2022-11-03T10:17:33.217Z,3.60
2022-11-03T10:20:30.421Z,0.80
2022-11-03T10:23:27.152Z,5.80
2022-11-03T10:26:24.255Z,3.20
2022-11-03T10:29:28.038Z,5.40
2022-11-03T10:32:35.323Z,4.40
2022-11-03T10:35:33.724Z,3.60
2022-11-03T10:38:35.148Z,6.00
2022-11-03T10:41:32.370Z,4.00
2022-11-03T10:44:29.802Z,3.00
2022-11-03T10:47:36.437Z,4.80
2022-11-03T10:50:33.232Z,2.60
2022-11-03T10:53:30.128Z,4.00
2022-11-03T10:56:27.489Z,2.00
2022-11-03T10:59:35.707Z,3.60
2022-11-03T11:02:33.225Z,2.40
2022-11-03T11:05:30.549Z,3.00
2022-11-03T11:08:27.251Z,3.20
2022-11-03T11:11:24.465Z,4.00
2022-11-03T11:14:28.142Z,3.00
2022-11-03T11:17:37.522Z,3.00
2022-11-03T11:20:44.103Z,4.80
2022-11-03T11:23:41.758Z,1.40
2022-11-03T11:26:39.972Z,3.00
2022-11-03T11:29:37.396Z,3.40
2022-11-03T11:32:37.354Z,2.40
2022-11-03T11:35:34.493Z,5.20
2022-11-03T11:38:49.540Z,3.00
2022-11-03T11:42:06.149Z,3.00
2022-11-03T11:45:03.591Z,3.00
2022-11-03T11:48:16.093Z,3.60
2022-11-03T11:51:15.373Z,4.20
2022-11-03T11:54:18.115Z,3.40
2022-11-03T11:57:19.654Z,3.80
2022-11-03T12:00:22.346Z,4.40
2022-11-03T12:03:20.115Z,3.40
2022-11-03T12:06:17.520Z,2.00
2022-11-03T12:09:18.333Z,2.40
2022-11-03T12:12:15.237Z,3.00
2022-11-03T12:15:52.170Z,4.80
2022-11-03T12:18:50.660Z,4.00
2022-11-03T12:21:49.217Z,4.00
2022-11-03T12:24:56.429Z,3.40
2022-11-03T12:27:53.532Z,2.40
2022-11-03T12:30:50.648Z,2.80
2022-11-03T12:33:48.253Z,5.20
2022-11-03T12:36:45.659Z,4.80
2022-11-03T12:39:42.166Z,2.60
2022-11-03T12:42:39.125Z,3.20
2022-11-03T12:45:36.652Z,5.60
2022-11-03T12:48:33.568Z,3.20
2022-11-03T12:51:30.103Z,7.00
2022-11-03T12:54:27.743Z,5.20
2022-11-03T12:57:25.381Z,4.00
2022-11-03T13:00:22.468Z,5.20
2022-11-03T13:03:19.474Z,3.80
2022-11-03T13:06:16.454Z,4.40
2022-11-03T13:09:13.479Z,6.40
2022-11-03T13:12:30.557Z,6.00
2022-11-03T13:15:27.217Z,2.60
2022-11-03T13:18:24.644Z,3.60
2022-11-03T13:21:21.280Z,6.00
2022-11-03T13:24:18.169Z,1.20
2022-11-03T13:27:15.455Z,6.00
2022-11-03T13:30:13.208Z,3.20
2022-11-03T13:33:11.055Z,3.00
2022-11-03T13:36:08.610Z,5.20
2022-11-03T13:39:05.612Z,6.60
2022-11-03T13:42:02.641Z,9.00
2022-11-03T13:45:00.817Z,6.00
2022-11-03T13:51:17.704Z,4.00
2022-11-03T14:00:49.360Z,6.00
2022-11-03T14:07:03.576Z,6.40
2022-11-03T14:10:03.757Z,5.20
2022-11-03T14:13:05.252Z,5.60
2022-11-03T14:16:02.280Z,7.20
2022-11-03T14:18:59.811Z,5.20
2022-11-03T14:21:57.899Z,6.20
2022-11-03T14:24:58.143Z,4.80
2022-11-03T14:27:55.635Z,7.00
2022-11-03T14:30:52.288Z,4.40
2022-11-03T14:33:49.310Z,4.80
2022-11-03T14:36:48.331Z,5.20
2022-11-03T14:39:45.503Z,6.00
2022-11-03T14:42:42.570Z,3.00
2022-11-03T14:45:42.477Z,6.60
2022-11-03T14:48:40.364Z,6.00
2022-11-03T14:51:37.445Z,8.00
2022-11-03T14:54:34.742Z,9.60
2022-11-03T14:57:31.198Z,8.40
2022-11-03T15:00:28.513Z,9.40
2022-11-03T15:03:25.485Z,6.80
2022-11-03T15:06:22.409Z,9.80
2022-11-03T15:09:19.797Z,7.20
2022-11-03T15:12:17.200Z,8.00
2022-11-03T15:15:14.701Z,9.40
2022-11-03T15:18:11.416Z,7.00
2022-11-03T15:21:08.595Z,7.60
2022-11-03T15:27:22.445Z,12.60
2022-11-03T15:30:19.516Z,19.80
2022-11-03T15:33:16.450Z,27.00
2022-11-03T15:36:13.507Z,51.00
2022-11-03T15:39:10.464Z,91.00
2022-11-03T15:42:07.603Z,77.00
2022-11-03T15:45:05.212Z,8.40
2022-11-03T15:48:02.595Z,13.40
2022-11-03T15:50:59.422Z,6.40
2022-11-03T15:53:58.802Z,7.60
2022-11-03T15:56:56.204Z,6.20
2022-11-03T15:59:56.884Z,6.20
2022-11-03T16:02:55.437Z,7.20
2022-11-03T16:05:52.629Z,9.00
2022-11-03T16:08:49.622Z,9.00
2022-11-03T16:11:46.694Z,7.80
2022-11-03T16:14:43.375Z,8.60
2022-11-03T16:17:45.380Z,4.00
2022-11-03T16:20:42.645Z,6.20
2022-11-03T16:23:39.603Z,7.20
2022-11-03T16:26:36.276Z,6.20
2022-11-03T16:29:33.899Z,6.00
2022-11-03T16:32:31.797Z,6.60
2022-11-03T16:35:29.766Z,7.00
2022-11-03T16:38:26.395Z,8.20
2022-11-03T16:41:23.838Z,7.40
2022-11-03T16:44:20.519Z,7.60
2022-11-03T16:47:17.437Z,4.80
2022-11-03T16:50:16.344Z,7.20
2022-11-03T16:53:13.631Z,8.00
2022-11-03T16:56:10.695Z,7.00
2022-11-03T16:59:07.795Z,5.20
2022-11-03T17:02:04.765Z,5.00
2022-11-03T17:05:01.501Z,5.40
2022-11-03T17:07:58.539Z,4.40
2022-11-03T17:10:55.221Z,8.00
2022-11-03T17:13:52.563Z,7.60
2022-11-03T17:16:49.296Z,8.00
2022-11-03T17:19:46.337Z,8.80
2022-11-03T17:22:43.593Z,8.80
2022-11-03T17:25:40.837Z,3.60
2022-11-03T17:28:38.527Z,4.80
2022-11-03T17:31:35.612Z,9.60
2022-11-03T17:34:32.588Z,7.00
2022-11-03T17:37:29.583Z,7.00
2022-11-03T17:40:26.932Z,7.40
2022-11-03T17:43:28.058Z,6.80
2022-11-03T17:46:25.502Z,6.60
2022-11-03T17:49:22.376Z,9.80
2022-11-03T17:52:25.073Z,6.20
2022-11-03T17:55:30.155Z,4.00
2022-11-03T17:58:34.691Z,5.60
2022-11-03T18:01:31.628Z,7.60
2022-11-03T18:04:28.811Z,4.80
2022-11-03T18:07:26.600Z,7.40
2022-11-03T18:10:31.588Z,5.60
2022-11-03T18:13:34.219Z,8.00
2022-11-03T18:16:31.589Z,7.00
2022-11-03T18:19:29.000Z,4.00
2022-11-03T18:22:26.646Z,6.60
2022-11-03T18:25:23.666Z,8.00
2022-11-03T18:28:20.764Z,7.40
2022-11-03T18:31:36.628Z,3.20
2022-11-03T18:34:33.415Z,7.60
2022-11-03T18:37:31.337Z,7.80
2022-11-03T18:40:29.321Z,7.00
2022-11-03T18:43:26.620Z,7.60
2022-11-03T18:46:23.451Z,6.00
2022-11-03T18:49:20.794Z,7.00
2022-11-03T18:52:17.815Z,6.00
2022-11-03T18:55:15.406Z,6.40
2022-11-03T18:58:20.724Z,8.40
2022-11-03T19:01:27.582Z,7.40
2022-11-03T19:04:24.536Z,6.20
2022-11-03T19:07:29.216Z,7.00
2022-11-03T19:10:26.747Z,9.20
2022-11-03T19:13:34.963Z,7.20
2022-11-03T19:16:31.631Z,11.60
2022-11-03T19:19:28.497Z,7.20
2022-11-03T19:22:26.392Z,7.60
2022-11-03T19:25:23.833Z,5.80
2022-11-03T19:28:20.531Z,7.80
2022-11-03T19:31:23.614Z,6.80
2022-11-03T19:34:22.614Z,12.80
2022-11-03T19:37:19.377Z,5.60
2022-11-03T19:40:18.628Z,9.40
2022-11-03T19:43:15.626Z,7.60
2022-11-03T19:46:17.635Z,11.40
2022-11-03T19:49:15.269Z,6.00
2022-11-03T19:52:14.150Z,11.20
2022-11-03T19:55:12.066Z,7.80
2022-11-03T19:58:16.829Z,7.00
2022-11-03T20:01:13.830Z,9.40
2022-11-03T20:04:10.852Z,9.40
2022-11-03T20:07:07.835Z,9.40
2022-11-03T20:10:05.071Z,10.60
2022-11-03T20:13:03.069Z,10.60
2022-11-03T20:16:01.663Z,19.20
2022-11-03T20:18:59.104Z,10.20
2022-11-03T20:22:02.694Z,11.00
2022-11-03T20:25:00.956Z,6.20
2022-11-03T20:27:57.982Z,9.40
2022-11-03T20:30:55.083Z,10.20
2022-11-03T20:33:52.462Z,10.00
2022-11-03T20:36:49.727Z,9.40
2022-11-03T20:39:47.519Z,7.40
2022-11-03T20:42:44.593Z,13.80
2022-11-03T20:45:41.608Z,12.60
2022-11-03T20:48:38.735Z,12.00
2022-11-03T20:51:44.254Z,11.00
2022-11-03T20:54:43.215Z,7.20
2022-11-03T20:57:40.894Z,8.00
2022-11-03T21:00:37.629Z,9.80
2022-11-03T21:03:58.315Z,8.60
2022-11-03T21:06:51.758Z,7.80
2022-11-03T21:09:49.015Z,9.20
2022-11-03T21:12:45.679Z,10.00
2022-11-03T21:16:23.101Z,7.60
2022-11-03T21:19:39.175Z,11.00
2022-11-03T21:22:52.514Z,9.60
2022-11-03T21:25:50.940Z,7.40
2022-11-03T21:28:47.798Z,6.00
2022-11-03T21:31:44.853Z,9.20
2022-11-03T21:34:41.561Z,10.00
2022-11-03T21:37:38.701Z,10.00
2022-11-03T21:40:35.741Z,10.00
2022-11-03T21:43:51.140Z,7.40
2022-11-03T21:46:49.145Z,11.60
2022-11-03T21:49:47.821Z,12.40
2022-11-03T21:52:45.259Z,11.60
2022-11-03T21:55:43.042Z,10.20
2022-11-03T21:58:40.001Z,8.00
2022-11-03T22:01:37.442Z,11.00
2022-11-03T22:04:36.601Z,12.80
2022-11-03T22:07:33.721Z,15.60
2022-11-03T22:10:30.952Z,12.20
2022-11-03T22:13:28.031Z,11.60
2022-11-03T22:16:36.915Z,10.40
2022-11-03T22:19:52.163Z,14.00
2022-11-03T22:23:08.595Z,8.00
2022-11-03T22:26:29.635Z,7.60
2022-11-03T22:29:45.392Z,8.40
2022-11-03T22:32:42.785Z,14.80
2022-11-03T22:35:58.212Z,11.80
2022-11-03T22:39:14.475Z,10.60
2022-11-03T22:42:30.541Z,10.80
2022-11-03T22:45:46.304Z,10.40
2022-11-03T22:48:44.208Z,8.00
2022-11-03T22:51:41.593Z,10.20
2022-11-03T22:54:38.874Z,11.00
2022-11-03T22:57:36.093Z,15.60
2022-11-03T23:00:32.693Z,7.00
2022-11-03T23:03:34.001Z,12.40
2022-11-03T23:06:34.955Z,11.20
2022-11-03T23:09:31.582Z,12.00
2022-11-03T23:12:29.081Z,11.60
2022-11-03T23:15:32.177Z,11.40
2022-11-03T23:18:48.479Z,9.60
2022-11-03T23:21:48.882Z,10.00
2022-11-03T23:25:01.164Z,14.20
2022-11-03T23:27:57.445Z,11.60
2022-11-03T23:30:55.233Z,11.00
2022-11-03T23:33:53.084Z,13.20
2022-11-03T23:36:49.672Z,10.60
2022-11-03T23:39:46.759Z,9.80
2022-11-03T23:42:44.123Z,14.80
2022-11-03T23:45:59.103Z,8.20
2022-11-03T23:48:55.743Z,14.60
2022-11-03T23:51:53.052Z,15.40
2022-11-03T23:54:49.673Z,14.60
2022-11-03T23:58:05.753Z,10.80
